sensor_id;sensor_type;location;lat;lon;timestamp;P1;durP1;ratioP1;P2;durP2;ratioP2
21820;SDS011;11073;48.586;12.066;2023-06-24T00:00:16;7.68;;;5.28;;
21820;SDS011;11073;48.586;12.066;2023-06-24T00:02:50;9.10;;;4.85;;
21820;SDS011;11073;48.586;12.066;2023-06-24T00:05:21;6.03;;;5.25;;
21820;SDS011;11073;48.586;12.066;2023-06-24T00:07:51;7.38;;;4.97;;
21820;SDS011;11073;48.586;12.066;2023-06-24T00:10:24;5.53;;;5.00;;
21820;SDS011;11073;48.586;12.066;2023-06-24T00:12:56;6.47;;;5.70;;
21820;SDS011;11073;48.586;12.066;2023-06-24T00:15:30;9.40;;;4.82;;
21820;SDS011;11073;48.586;12.066;2023-06-24T00:18:00;8.38;;;4.93;;
21820;SDS011;11073;48.586;12.066;2023-06-24T00:20:33;7.38;;;5.97;;
21820;SDS011;11073;48.586;12.066;2023-06-24T00:23:04;6.57;;;5.50;;
21820;SDS011;11073;48.586;12.066;2023-06-24T00:25:34;6.72;;;5.68;;
21820;SDS011;11073;48.586;12.066;2023-06-24T00:28:03;8.43;;;5.30;;
21820;SDS011;11073;48.586;12.066;2023-06-24T00:30:34;8.02;;;5.07;;
21820;SDS011;11073;48.586;12.066;2023-06-24T00:33:05;5.93;;;5.32;;
21820;SDS011;11073;48.586;12.066;2023-06-24T00:35:36;6.55;;;5.65;;
21820;SDS011;11073;48.586;12.066;2023-06-24T00:38:05;7.75;;;5.72;;
21820;SDS011;11073;48.586;12.066;2023-06-24T00:40:35;5.78;;;5.13;;
21820;SDS011;11073;48.586;12.066;2023-06-24T00:43:04;5.35;;;4.85;;
21820;SDS011;11073;48.586;12.066;2023-06-24T00:45:36;5.90;;;4.75;;
21820;SDS011;11073;48.586;12.066;2023-06-24T00:48:05;5.45;;;4.95;;
21820;SDS011;11073;48.586;12.066;2023-06-24T00:50:34;8.82;;;5.68;;
21820;SDS011;11073;48.586;12.066;2023-06-24T00:53:04;5.72;;;4.93;;
21820;SDS011;11073;48.586;12.066;2023-06-24T00:55:32;6.55;;;5.32;;
21820;SDS011;11073;48.586;12.066;2023-06-24T00:58:02;5.95;;;5.10;;
21820;SDS011;11073;48.586;12.066;2023-06-24T01:00:32;6.50;;;4.80;;
21820;SDS011;11073;48.586;12.066;2023-06-24T01:03:03;6.63;;;5.10;;
21820;SDS011;11073;48.586;12.066;2023-06-24T01:05:33;6.55;;;4.72;;
21820;SDS011;11073;48.586;12.066;2023-06-24T01:08:03;8.40;;;4.90;;
21820;SDS011;11073;48.586;12.066;2023-06-24T01:10:32;5.65;;;5.15;;
21820;SDS011;11073;48.586;12.066;2023-06-24T01:13:01;6.22;;;5.40;;
21820;SDS011;11073;48.586;12.066;2023-06-24T01:15:30;6.20;;;5.22;;
21820;SDS011;11073;48.586;12.066;2023-06-24T01:18:02;6.63;;;5.70;;
21820;SDS011;11073;48.586;12.066;2023-06-24T01:20:41;6.53;;;5.57;;
21820;SDS011;11073;48.586;12.066;2023-06-24T01:23:32;7.60;;;5.57;;
21820;SDS011;11073;48.586;12.066;2023-06-24T01:26:19;8.27;;;5.10;;
21820;SDS011;11073;48.586;12.066;2023-06-24T01:29:15;5.90;;;5.30;;
21820;SDS011;11073;48.586;12.066;2023-06-24T01:31:59;5.25;;;4.75;;
21820;SDS011;11073;48.586;12.066;2023-06-24T01:34:36;6.82;;;4.88;;
21820;SDS011;11073;48.586;12.066;2023-06-24T01:37:12;6.93;;;5.28;;
21820;SDS011;11073;48.586;12.066;2023-06-24T01:39:46;6.05;;;4.93;;
21820;SDS011;11073;48.586;12.066;2023-06-24T01:42:18;7.10;;;5.90;;
21820;SDS011;11073;48.586;12.066;2023-06-24T01:44:51;7.55;;;5.97;;
21820;SDS011;11073;48.586;12.066;2023-06-24T01:47:23;6.50;;;5.60;;
21820;SDS011;11073;48.586;12.066;2023-06-24T01:49:56;6.22;;;5.28;;
21820;SDS011;11073;48.586;12.066;2023-06-24T01:52:29;6.10;;;5.00;;
21820;SDS011;11073;48.586;12.066;2023-06-24T01:55:02;5.93;;;5.20;;
21820;SDS011;11073;48.586;12.066;2023-06-24T01:57:35;6.82;;;4.93;;
21820;SDS011;11073;48.586;12.066;2023-06-24T02:00:07;6.35;;;4.22;;
21820;SDS011;11073;48.586;12.066;2023-06-24T02:02:51;6.70;;;4.72;;
21820;SDS011;11073;48.586;12.066;2023-06-24T02:05:23;6.22;;;4.47;;
21820;SDS011;11073;48.586;12.066;2023-06-24T02:07:54;5.43;;;4.85;;
21820;SDS011;11073;48.586;12.066;2023-06-24T02:10:25;5.65;;;4.70;;
21820;SDS011;11073;48.586;12.066;2023-06-24T02:12:56;4.55;;;4.07;;
21820;SDS011;11073;48.586;12.066;2023-06-24T02:15:27;5.47;;;4.30;;
21820;SDS011;11073;48.586;12.066;2023-06-24T02:17:59;5.90;;;4.72;;
21820;SDS011;11073;48.586;12.066;2023-06-24T02:20:33;5.43;;;4.15;;
21820;SDS011;11073;48.586;12.066;2023-06-24T02:23:03;5.55;;;4.60;;
21820;SDS011;11073;48.586;12.066;2023-06-24T02:25:33;5.47;;;4.38;;
21820;SDS011;11073;48.586;12.066;2023-06-24T02:28:03;4.85;;;4.35;;
21820;SDS011;11073;48.586;12.066;2023-06-24T02:30:34;4.78;;;4.28;;
21820;SDS011;11073;48.586;12.066;2023-06-24T02:33:06;7.72;;;5.72;;
21820;SDS011;11073;48.586;12.066;2023-06-24T02:35:37;7.18;;;5.28;;
21820;SDS011;11073;48.586;12.066;2023-06-24T02:38:12;6.28;;;5.65;;
21820;SDS011;11073;48.586;12.066;2023-06-24T02:40:42;6.68;;;5.18;;
21820;SDS011;11073;48.586;12.066;2023-06-24T02:43:13;5.95;;;4.80;;
21820;SDS011;11073;48.586;12.066;2023-06-24T02:45:43;7.65;;;5.60;;
21820;SDS011;11073;48.586;12.066;2023-06-24T02:48:15;11.20;;;5.10;;
21820;SDS011;11073;48.586;12.066;2023-06-24T02:50:46;8.32;;;5.05;;
21820;SDS011;11073;48.586;12.066;2023-06-24T02:53:16;5.75;;;5.00;;
21820;SDS011;11073;48.586;12.066;2023-06-24T02:55:46;6.93;;;5.32;;
21820;SDS011;11073;48.586;12.066;2023-06-24T02:58:16;7.22;;;5.15;;
21820;SDS011;11073;48.586;12.066;2023-06-24T03:00:55;5.95;;;5.05;;
21820;SDS011;11073;48.586;12.066;2023-06-24T03:03:33;5.88;;;5.32;;
21820;SDS011;11073;48.586;12.066;2023-06-24T03:06:06;7.03;;;5.03;;
21820;SDS011;11073;48.586;12.066;2023-06-24T03:08:40;5.68;;;5.07;;
21820;SDS011;11073;48.586;12.066;2023-06-24T03:11:12;6.53;;;4.63;;
21820;SDS011;11073;48.586;12.066;2023-06-24T03:13:41;8.57;;;5.55;;
21820;SDS011;11073;48.586;12.066;2023-06-24T03:16:18;7.43;;;5.18;;
21820;SDS011;11073;48.586;12.066;2023-06-24T03:19:12;8.02;;;5.35;;
21820;SDS011;11073;48.586;12.066;2023-06-24T03:21:42;7.00;;;5.32;;
21820;SDS011;11073;48.586;12.066;2023-06-24T03:24:12;5.88;;;5.25;;
21820;SDS011;11073;48.586;12.066;2023-06-24T03:26:44;6.55;;;5.00;;
21820;SDS011;11073;48.586;12.066;2023-06-24T03:29:14;7.97;;;5.05;;
21820;SDS011;11073;48.586;12.066;2023-06-24T03:32:01;5.72;;;5.03;;
21820;SDS011;11073;48.586;12.066;2023-06-24T03:34:32;6.60;;;5.13;;
21820;SDS011;11073;48.586;12.066;2023-06-24T03:37:01;5.93;;;5.32;;
21820;SDS011;11073;48.586;12.066;2023-06-24T03:39:33;7.57;;;6.28;;
21820;SDS011;11073;48.586;12.066;2023-06-24T03:42:05;6.47;;;5.13;;
21820;SDS011;11073;48.586;12.066;2023-06-24T03:44:34;8.75;;;5.30;;
21820;SDS011;11073;48.586;12.066;2023-06-24T03:47:03;7.13;;;5.22;;
21820;SDS011;11073;48.586;12.066;2023-06-24T03:49:33;7.47;;;5.28;;
21820;SDS011;11073;48.586;12.066;2023-06-24T03:52:02;7.00;;;5.30;;
21820;SDS011;11073;48.586;12.066;2023-06-24T03:54:34;7.05;;;5.40;;
21820;SDS011;11073;48.586;12.066;2023-06-24T03:57:03;6.97;;;5.43;;
21820;SDS011;11073;48.586;12.066;2023-06-24T03:59:33;5.97;;;5.20;;
21820;SDS011;11073;48.586;12.066;2023-06-24T04:02:02;6.90;;;6.20;;
21820;SDS011;11073;48.586;12.066;2023-06-24T04:04:37;8.05;;;6.95;;
21820;SDS011;11073;48.586;12.066;2023-06-24T04:07:06;8.00;;;6.28;;
21820;SDS011;11073;48.586;12.066;2023-06-24T04:09:37;7.35;;;5.85;;
21820;SDS011;11073;48.586;12.066;2023-06-24T04:12:07;6.78;;;6.05;;
21820;SDS011;11073;48.586;12.066;2023-06-24T04:14:36;7.45;;;5.57;;
21820;SDS011;11073;48.586;12.066;2023-06-24T04:17:05;6.68;;;5.97;;
21820;SDS011;11073;48.586;12.066;2023-06-24T04:19:34;7.65;;;5.63;;
21820;SDS011;11073;48.586;12.066;2023-06-24T04:22:04;8.38;;;6.03;;
21820;SDS011;11073;48.586;12.066;2023-06-24T04:24:34;6.72;;;5.57;;
21820;SDS011;11073;48.586;12.066;2023-06-24T04:27:03;9.50;;;6.38;;
21820;SDS011;11073;48.586;12.066;2023-06-24T04:29:35;6.38;;;5.63;;
21820;SDS011;11073;48.586;12.066;2023-06-24T04:32:04;7.15;;;5.78;;
21820;SDS011;11073;48.586;12.066;2023-06-24T04:34:33;6.80;;;5.97;;
21820;SDS011;11073;48.586;12.066;2023-06-24T04:37:02;6.63;;;5.93;;
21820;SDS011;11073;48.586;12.066;2023-06-24T04:39:34;6.93;;;5.07;;
21820;SDS011;11073;48.586;12.066;2023-06-24T04:42:03;6.78;;;5.05;;
21820;SDS011;11073;48.586;12.066;2023-06-24T04:44:33;10.30;;;6.03;;
21820;SDS011;11073;48.586;12.066;2023-06-24T04:47:02;6.65;;;5.22;;
21820;SDS011;11073;48.586;12.066;2023-06-24T04:49:31;5.97;;;5.13;;
21820;SDS011;11073;48.586;12.066;2023-06-24T04:52:00;5.47;;;4.65;;
21820;SDS011;11073;48.586;12.066;2023-06-24T04:54:29;5.85;;;5.25;;
21820;SDS011;11073;48.586;12.066;2023-06-24T04:56:59;6.40;;;5.07;;
21820;SDS011;11073;48.586;12.066;2023-06-24T04:59:28;6.68;;;5.28;;
21820;SDS011;11073;48.586;12.066;2023-06-24T05:01:57;6.38;;;5.50;;
21820;SDS011;11073;48.586;12.066;2023-06-24T05:04:26;5.60;;;4.95;;
21820;SDS011;11073;48.586;12.066;2023-06-24T05:06:56;8.35;;;5.38;;
21820;SDS011;11073;48.586;12.066;2023-06-24T05:09:26;7.90;;;5.63;;
21820;SDS011;11073;48.586;12.066;2023-06-24T05:11:55;7.97;;;5.53;;
21820;SDS011;11073;48.586;12.066;2023-06-24T05:14:26;5.65;;;5.07;;
21820;SDS011;11073;48.586;12.066;2023-06-24T05:16:54;7.35;;;5.50;;
21820;SDS011;11073;48.586;12.066;2023-06-24T05:19:23;6.82;;;5.28;;
21820;SDS011;11073;48.586;12.066;2023-06-24T05:21:53;10.45;;;5.97;;
21820;SDS011;11073;48.586;12.066;2023-06-24T05:24:22;7.93;;;6.07;;
21820;SDS011;11073;48.586;12.066;2023-06-24T05:26:51;6.72;;;5.70;;
21820;SDS011;11073;48.586;12.066;2023-06-24T05:29:20;13.55;;;5.45;;
21820;SDS011;11073;48.586;12.066;2023-06-24T05:31:51;8.63;;;6.47;;
21820;SDS011;11073;48.586;12.066;2023-06-24T05:34:20;9.85;;;6.50;;
21820;SDS011;11073;48.586;12.066;2023-06-24T05:36:49;8.85;;;6.55;;
21820;SDS011;11073;48.586;12.066;2023-06-24T05:39:36;7.28;;;6.15;;
21820;SDS011;11073;48.586;12.066;2023-06-24T05:42:05;8.75;;;6.22;;
21820;SDS011;11073;48.586;12.066;2023-06-24T05:44:33;6.88;;;5.68;;
21820;SDS011;11073;48.586;12.066;2023-06-24T05:47:03;6.85;;;5.93;;
21820;SDS011;11073;48.586;12.066;2023-06-24T05:49:32;8.38;;;6.03;;
21820;SDS011;11073;48.586;12.066;2023-06-24T05:52:01;9.35;;;6.40;;
21820;SDS011;11073;48.586;12.066;2023-06-24T05:54:31;6.35;;;5.70;;
21820;SDS011;11073;48.586;12.066;2023-06-24T05:57:00;7.35;;;5.93;;
21820;SDS011;11073;48.586;12.066;2023-06-24T05:59:33;6.43;;;5.80;;
21820;SDS011;11073;48.586;12.066;2023-06-24T06:02:01;7.82;;;5.80;;
21820;SDS011;11073;48.586;12.066;2023-06-24T06:04:32;6.28;;;5.68;;
21820;SDS011;11073;48.586;12.066;2023-06-24T06:07:01;6.20;;;5.55;;
21820;SDS011;11073;48.586;12.066;2023-06-24T06:09:31;6.55;;;5.80;;
21820;SDS011;11073;48.586;12.066;2023-06-24T06:12:00;6.50;;;5.90;;
21820;SDS011;11073;48.586;12.066;2023-06-24T06:14:29;9.13;;;5.93;;
21820;SDS011;11073;48.586;12.066;2023-06-24T06:17:01;7.03;;;6.32;;
21820;SDS011;11073;48.586;12.066;2023-06-24T06:19:32;8.27;;;5.75;;
21820;SDS011;11073;48.586;12.066;2023-06-24T06:22:01;8.65;;;5.70;;
21820;SDS011;11073;48.586;12.066;2023-06-24T06:24:31;5.53;;;5.03;;
21820;SDS011;11073;48.586;12.066;2023-06-24T06:27:00;6.15;;;5.50;;
21820;SDS011;11073;48.586;12.066;2023-06-24T06:29:28;6.20;;;5.60;;
21820;SDS011;11073;48.586;12.066;2023-06-24T06:32:02;8.05;;;5.88;;
21820;SDS011;11073;48.586;12.066;2023-06-24T06:34:37;8.00;;;5.95;;
21820;SDS011;11073;48.586;12.066;2023-06-24T06:37:06;6.00;;;5.40;;
21820;SDS011;11073;48.586;12.066;2023-06-24T06:39:35;6.05;;;5.45;;
21820;SDS011;11073;48.586;12.066;2023-06-24T06:42:05;5.43;;;4.78;;
21820;SDS011;11073;48.586;12.066;2023-06-24T06:44:35;6.50;;;5.90;;
21820;SDS011;11073;48.586;12.066;2023-06-24T06:47:04;6.10;;;5.38;;
21820;SDS011;11073;48.586;12.066;2023-06-24T06:49:34;7.03;;;5.55;;
21820;SDS011;11073;48.586;12.066;2023-06-24T06:52:07;5.97;;;5.40;;
21820;SDS011;11073;48.586;12.066;2023-06-24T06:54:36;6.00;;;5.43;;
21820;SDS011;11073;48.586;12.066;2023-06-24T06:57:06;7.93;;;6.30;;
21820;SDS011;11073;48.586;12.066;2023-06-24T06:59:35;6.47;;;5.72;;
21820;SDS011;11073;48.586;12.066;2023-06-24T07:02:05;6.10;;;5.50;;
21820;SDS011;11073;48.586;12.066;2023-06-24T07:04:35;6.32;;;4.95;;
21820;SDS011;11073;48.586;12.066;2023-06-24T07:07:08;5.82;;;4.88;;
21820;SDS011;11073;48.586;12.066;2023-06-24T07:09:52;5.35;;;4.85;;
21820;SDS011;11073;48.586;12.066;2023-06-24T07:12:21;5.63;;;4.90;;
21820;SDS011;11073;48.586;12.066;2023-06-24T07:14:50;5.90;;;5.13;;
21820;SDS011;11073;48.586;12.066;2023-06-24T07:17:23;5.65;;;4.88;;
21820;SDS011;11073;48.586;12.066;2023-06-24T07:19:52;6.15;;;4.72;;
21820;SDS011;11073;48.586;12.066;2023-06-24T07:22:23;5.28;;;4.78;;
21820;SDS011;11073;48.586;12.066;2023-06-24T07:24:53;5.80;;;4.25;;
21820;SDS011;11073;48.586;12.066;2023-06-24T07:27:23;5.22;;;4.43;;
21820;SDS011;11073;48.586;12.066;2023-06-24T07:29:53;6.13;;;4.18;;
21820;SDS011;11073;48.586;12.066;2023-06-24T07:32:22;4.93;;;4.43;;
21820;SDS011;11073;48.586;12.066;2023-06-24T07:34:52;6.25;;;4.47;;
21820;SDS011;11073;48.586;12.066;2023-06-24T07:37:23;5.28;;;4.78;;
21820;SDS011;11073;48.586;12.066;2023-06-24T07:39:53;4.40;;;4.00;;
21820;SDS011;11073;48.586;12.066;2023-06-24T07:42:22;5.40;;;4.63;;
21820;SDS011;11073;48.586;12.066;2023-06-24T07:44:51;4.85;;;4.32;;
21820;SDS011;11073;48.586;12.066;2023-06-24T07:47:20;5.22;;;4.53;;
21820;SDS011;11073;48.586;12.066;2023-06-24T07:49:49;6.15;;;4.85;;
21820;SDS011;11073;48.586;12.066;2023-06-24T07:52:18;5.45;;;4.32;;
21820;SDS011;11073;48.586;12.066;2023-06-24T07:54:49;5.70;;;4.40;;
21820;SDS011;11073;48.586;12.066;2023-06-24T07:57:19;6.10;;;4.85;;
21820;SDS011;11073;48.586;12.066;2023-06-24T07:59:48;6.90;;;4.65;;
21820;SDS011;11073;48.586;12.066;2023-06-24T08:02:17;5.25;;;4.75;;
21820;SDS011;11073;48.586;12.066;2023-06-24T08:04:46;6.40;;;4.68;;
21820;SDS011;11073;48.586;12.066;2023-06-24T08:07:15;5.68;;;4.68;;
21820;SDS011;11073;48.586;12.066;2023-06-24T08:09:45;5.72;;;4.90;;
21820;SDS011;11073;48.586;12.066;2023-06-24T08:12:15;5.72;;;4.68;;
21820;SDS011;11073;48.586;12.066;2023-06-24T08:14:44;5.75;;;5.13;;
21820;SDS011;11073;48.586;12.066;2023-06-24T08:17:13;5.18;;;4.68;;
21820;SDS011;11073;48.586;12.066;2023-06-24T08:19:42;5.53;;;4.55;;
21820;SDS011;11073;48.586;12.066;2023-06-24T08:22:11;6.80;;;5.15;;
21820;SDS011;11073;48.586;12.066;2023-06-24T08:24:39;6.30;;;4.20;;
21820;SDS011;11073;48.586;12.066;2023-06-24T08:27:08;7.05;;;5.20;;
21820;SDS011;11073;48.586;12.066;2023-06-24T08:29:39;6.28;;;5.65;;
21820;SDS011;11073;48.586;12.066;2023-06-24T08:32:08;8.40;;;5.35;;
21820;SDS011;11073;48.586;12.066;2023-06-24T08:34:36;7.32;;;4.68;;
21820;SDS011;11073;48.586;12.066;2023-06-24T08:37:05;6.55;;;5.13;;
21820;SDS011;11073;48.586;12.066;2023-06-24T08:39:35;5.28;;;4.72;;
21820;SDS011;11073;48.586;12.066;2023-06-24T08:42:06;5.82;;;5.00;;
21820;SDS011;11073;48.586;12.066;2023-06-24T08:44:35;6.95;;;5.00;;
21820;SDS011;11073;48.586;12.066;2023-06-24T08:47:06;4.80;;;4.30;;
21820;SDS011;11073;48.586;12.066;2023-06-24T08:49:37;7.40;;;5.68;;
21820;SDS011;11073;48.586;12.066;2023-06-24T08:52:12;6.13;;;5.18;;
21820;SDS011;11073;48.586;12.066;2023-06-24T08:54:45;6.18;;;4.60;;
21820;SDS011;11073;48.586;12.066;2023-06-24T08:57:16;5.32;;;4.82;;
21820;SDS011;11073;48.586;12.066;2023-06-24T08:59:45;5.43;;;4.55;;
21820;SDS011;11073;48.586;12.066;2023-06-24T09:02:16;7.68;;;5.25;;
21820;SDS011;11073;48.586;12.066;2023-06-24T09:04:45;7.07;;;4.93;;
21820;SDS011;11073;48.586;12.066;2023-06-24T09:07:14;5.30;;;4.80;;
21820;SDS011;11073;48.586;12.066;2023-06-24T09:09:53;6.15;;;5.55;;
21820;SDS011;11073;48.586;12.066;2023-06-24T09:12:23;5.70;;;5.20;;
21820;SDS011;11073;48.586;12.066;2023-06-24T09:14:52;7.25;;;5.05;;
21820;SDS011;11073;48.586;12.066;2023-06-24T09:17:23;6.32;;;5.72;;
21820;SDS011;11073;48.586;12.066;2023-06-24T09:20:02;5.60;;;5.10;;
21820;SDS011;11073;48.586;12.066;2023-06-24T09:22:32;5.15;;;4.25;;
21820;SDS011;11073;48.586;12.066;2023-06-24T09:25:00;5.53;;;4.97;;
21820;SDS011;11073;48.586;12.066;2023-06-24T09:27:31;5.93;;;5.03;;
21820;SDS011;11073;48.586;12.066;2023-06-24T09:30:04;5.95;;;4.97;;
21820;SDS011;11073;48.586;12.066;2023-06-24T09:33:03;5.40;;;4.65;;
21820;SDS011;11073;48.586;12.066;2023-06-24T09:35:35;6.93;;;5.60;;
21820;SDS011;11073;48.586;12.066;2023-06-24T09:38:05;5.82;;;5.22;;
21820;SDS011;11073;48.586;12.066;2023-06-24T09:40:34;6.55;;;5.57;;
21820;SDS011;11073;48.586;12.066;2023-06-24T09:43:05;5.95;;;5.22;;
21820;SDS011;11073;48.586;12.066;2023-06-24T09:45:33;5.15;;;4.20;;
21820;SDS011;11073;48.586;12.066;2023-06-24T09:48:07;4.68;;;4.15;;
21820;SDS011;11073;48.586;12.066;2023-06-24T09:50:36;5.25;;;4.30;;
21820;SDS011;11073;48.586;12.066;2023-06-24T09:53:05;5.20;;;4.32;;
21820;SDS011;11073;48.586;12.066;2023-06-24T09:55:39;6.20;;;4.28;;
21820;SDS011;11073;48.586;12.066;2023-06-24T09:58:10;5.15;;;4.22;;
21820;SDS011;11073;48.586;12.066;2023-06-24T10:00:40;6.25;;;4.65;;
21820;SDS011;11073;48.586;12.066;2023-06-24T10:03:10;5.95;;;3.70;;
21820;SDS011;11073;48.586;12.066;2023-06-24T10:05:40;5.55;;;4.38;;
21820;SDS011;11073;48.586;12.066;2023-06-24T10:08:13;5.15;;;4.40;;
21820;SDS011;11073;48.586;12.066;2023-06-24T10:10:42;4.55;;;4.00;;
21820;SDS011;11073;48.586;12.066;2023-06-24T10:13:10;4.40;;;3.70;;
21820;SDS011;11073;48.586;12.066;2023-06-24T10:15:39;3.58;;;3.28;;
21820;SDS011;11073;48.586;12.066;2023-06-24T10:21:08;3.28;;;2.97;;
21820;SDS011;11073;48.586;12.066;2023-06-24T10:23:41;7.95;;;3.90;;
21820;SDS011;11073;48.586;12.066;2023-06-24T10:26:21;5.68;;;3.20;;
21820;SDS011;11073;48.586;12.066;2023-06-24T10:29:10;4.57;;;3.72;;
21820;SDS011;11073;48.586;12.066;2023-06-24T10:31:51;4.97;;;3.70;;
21820;SDS011;11073;48.586;12.066;2023-06-24T10:34:24;4.32;;;3.60;;
21820;SDS011;11073;48.586;12.066;2023-06-24T10:36:56;4.47;;;3.60;;
21820;SDS011;11073;48.586;12.066;2023-06-24T10:39:38;3.40;;;3.10;;
21820;SDS011;11073;48.586;12.066;2023-06-24T10:44:56;6.28;;;4.57;;
21820;SDS011;11073;48.586;12.066;2023-06-24T10:47:26;5.10;;;4.40;;
21820;SDS011;11073;48.586;12.066;2023-06-24T10:49:57;5.15;;;4.13;;
21820;SDS011;11073;48.586;12.066;2023-06-24T10:52:28;6.38;;;4.32;;
21820;SDS011;11073;48.586;12.066;2023-06-24T10:54:57;5.32;;;4.68;;
21820;SDS011;11073;48.586;12.066;2023-06-24T10:57:29;5.40;;;3.95;;
21820;SDS011;11073;48.586;12.066;2023-06-24T10:59:58;4.28;;;3.95;;
21820;SDS011;11073;48.586;12.066;2023-06-24T11:02:27;5.15;;;3.80;;
21820;SDS011;11073;48.586;12.066;2023-06-24T11:04:56;4.55;;;3.85;;
21820;SDS011;11073;48.586;12.066;2023-06-24T11:07:29;4.13;;;3.70;;
21820;SDS011;11073;48.586;12.066;2023-06-24T11:10:02;4.07;;;3.67;;
21820;SDS011;11073;48.586;12.066;2023-06-24T11:12:38;4.13;;;3.72;;
21820;SDS011;11073;48.586;12.066;2023-06-24T11:15:09;3.50;;;3.15;;
21820;SDS011;11073;48.586;12.066;2023-06-24T11:17:40;4.03;;;3.72;;
21820;SDS011;11073;48.586;12.066;2023-06-24T11:20:13;4.45;;;3.45;;
21820;SDS011;11073;48.586;12.066;2023-06-24T11:23:08;4.32;;;3.88;;
21820;SDS011;11073;48.586;12.066;2023-06-24T11:25:39;4.72;;;4.10;;
21820;SDS011;11073;48.586;12.066;2023-06-24T11:28:13;4.80;;;3.60;;
21820;SDS011;11073;48.586;12.066;2023-06-24T11:30:43;4.82;;;3.17;;
21820;SDS011;11073;48.586;12.066;2023-06-24T11:33:12;3.85;;;3.35;;
21820;SDS011;11073;48.586;12.066;2023-06-24T11:35:42;3.97;;;3.58;;
21820;SDS011;11073;48.586;12.066;2023-06-24T11:38:11;4.20;;;3.33;;
21820;SDS011;11073;48.586;12.066;2023-06-24T11:40:40;3.97;;;3.58;;
21820;SDS011;11073;48.586;12.066;2023-06-24T11:43:09;3.88;;;3.47;;
21820;SDS011;11073;48.586;12.066;2023-06-24T11:45:37;3.47;;;3.15;;
21820;SDS011;11073;48.586;12.066;2023-06-24T11:48:06;4.30;;;3.13;;
21820;SDS011;11073;48.586;12.066;2023-06-24T11:50:35;3.95;;;3.33;;
21820;SDS011;11073;48.586;12.066;2023-06-24T11:53:06;4.35;;;3.58;;
21820;SDS011;11073;48.586;12.066;2023-06-24T11:55:35;4.07;;;3.63;;
21820;SDS011;11073;48.586;12.066;2023-06-24T11:58:04;4.28;;;3.83;;
21820;SDS011;11073;48.586;12.066;2023-06-24T12:00:35;5.80;;;4.30;;
21820;SDS011;11073;48.586;12.066;2023-06-24T12:03:06;3.95;;;3.55;;
21820;SDS011;11073;48.586;12.066;2023-06-24T12:05:38;3.85;;;3.50;;
21820;SDS011;11073;48.586;12.066;2023-06-24T12:08:14;6.35;;;3.83;;
21820;SDS011;11073;48.586;12.066;2023-06-24T12:10:44;3.70;;;3.40;;
21820;SDS011;11073;48.586;12.066;2023-06-24T12:13:14;6.38;;;3.28;;
21820;SDS011;11073;48.586;12.066;2023-06-24T12:15:42;5.65;;;3.38;;
21820;SDS011;11073;48.586;12.066;2023-06-24T12:18:12;4.78;;;3.97;;
21820;SDS011;11073;48.586;12.066;2023-06-24T12:20:41;7.20;;;3.40;;
21820;SDS011;11073;48.586;12.066;2023-06-24T12:23:11;3.92;;;3.53;;
21820;SDS011;11073;48.586;12.066;2023-06-24T12:25:42;4.32;;;3.80;;
21820;SDS011;11073;48.586;12.066;2023-06-24T12:28:11;4.18;;;3.72;;
21820;SDS011;11073;48.586;12.066;2023-06-24T12:30:40;7.13;;;4.30;;
21820;SDS011;11073;48.586;12.066;2023-06-24T12:33:08;4.38;;;3.95;;
21820;SDS011;11073;48.586;12.066;2023-06-24T12:35:39;5.38;;;3.50;;
21820;SDS011;11073;48.586;12.066;2023-06-24T12:38:09;6.72;;;3.97;;
21820;SDS011;11073;48.586;12.066;2023-06-24T12:40:38;3.80;;;3.50;;
21820;SDS011;11073;48.586;12.066;2023-06-24T12:43:08;4.13;;;3.72;;
21820;SDS011;11073;48.586;12.066;2023-06-24T12:45:38;4.30;;;3.28;;
21820;SDS011;11073;48.586;12.066;2023-06-24T12:48:07;5.07;;;3.40;;
21820;SDS011;11073;48.586;12.066;2023-06-24T12:50:35;4.88;;;3.33;;
21820;SDS011;11073;48.586;12.066;2023-06-24T12:53:04;3.60;;;3.30;;
21820;SDS011;11073;48.586;12.066;2023-06-24T12:55:34;3.60;;;3.30;;
21820;SDS011;11073;48.586;12.066;2023-06-24T12:58:04;3.35;;;3.05;;
21820;SDS011;11073;48.586;12.066;2023-06-24T13:00:34;3.47;;;3.17;;
21820;SDS011;11073;48.586;12.066;2023-06-24T13:03:04;4.50;;;3.53;;
21820;SDS011;11073;48.586;12.066;2023-06-24T13:05:33;3.80;;;3.40;;
21820;SDS011;11073;48.586;12.066;2023-06-24T13:08:03;5.35;;;3.83;;
21820;SDS011;11073;48.586;12.066;2023-06-24T13:10:33;3.50;;;3.20;;
21820;SDS011;11073;48.586;12.066;2023-06-24T13:13:03;3.85;;;3.40;;
21820;SDS011;11073;48.586;12.066;2023-06-24T13:15:31;3.65;;;3.33;;
21820;SDS011;11073;48.586;12.066;2023-06-24T13:18:03;3.85;;;3.45;;
21820;SDS011;11073;48.586;12.066;2023-06-24T13:20:32;4.10;;;3.67;;
21820;SDS011;11073;48.586;12.066;2023-06-24T13:23:01;4.22;;;3.63;;
21820;SDS011;11073;48.586;12.066;2023-06-24T13:25:30;3.83;;;3.50;;
21820;SDS011;11073;48.586;12.066;2023-06-24T13:27:59;6.53;;;3.88;;
21820;SDS011;11073;48.586;12.066;2023-06-24T13:30:29;3.78;;;3.33;;
21820;SDS011;11073;48.586;12.066;2023-06-24T13:32:59;3.60;;;3.28;;
21820;SDS011;11073;48.586;12.066;2023-06-24T13:35:28;4.32;;;3.35;;
21820;SDS011;11073;48.586;12.066;2023-06-24T13:37:58;4.70;;;3.53;;
21820;SDS011;11073;48.586;12.066;2023-06-24T13:40:28;3.38;;;3.08;;
21820;SDS011;11073;48.586;12.066;2023-06-24T13:42:57;3.42;;;3.13;;
21820;SDS011;11073;48.586;12.066;2023-06-24T13:45:27;3.70;;;3.17;;
21820;SDS011;11073;48.586;12.066;2023-06-24T13:47:56;3.60;;;3.30;;
21820;SDS011;11073;48.586;12.066;2023-06-24T13:50:27;3.92;;;3.15;;
21820;SDS011;11073;48.586;12.066;2023-06-24T13:52:57;4.47;;;3.17;;
21820;SDS011;11073;48.586;12.066;2023-06-24T13:55:27;3.42;;;3.10;;
21820;SDS011;11073;48.586;12.066;2023-06-24T13:57:56;3.63;;;3.33;;
21820;SDS011;11073;48.586;12.066;2023-06-24T14:00:26;3.47;;;3.17;;
21820;SDS011;11073;48.586;12.066;2023-06-24T14:02:55;6.50;;;3.03;;
21820;SDS011;11073;48.586;12.066;2023-06-24T14:05:24;3.70;;;3.30;;
21820;SDS011;11073;48.586;12.066;2023-06-24T14:07:54;3.78;;;3.42;;
21820;SDS011;11073;48.586;12.066;2023-06-24T14:10:23;4.55;;;3.53;;
21820;SDS011;11073;48.586;12.066;2023-06-24T14:12:51;3.50;;;2.78;;
21820;SDS011;11073;48.586;12.066;2023-06-24T14:15:20;3.60;;;3.30;;
21820;SDS011;11073;48.586;12.066;2023-06-24T14:17:50;3.70;;;3.40;;
21820;SDS011;11073;48.586;12.066;2023-06-24T14:20:18;3.50;;;3.20;;
21820;SDS011;11073;48.586;12.066;2023-06-24T14:22:47;3.70;;;3.40;;
21820;SDS011;11073;48.586;12.066;2023-06-24T14:25:18;3.45;;;3.15;;
21820;SDS011;11073;48.586;12.066;2023-06-24T14:27:46;3.42;;;3.10;;
21820;SDS011;11073;48.586;12.066;2023-06-24T14:30:18;3.50;;;3.17;;
21820;SDS011;11073;48.586;12.066;2023-06-24T14:32:47;3.42;;;3.13;;
21820;SDS011;11073;48.586;12.066;2023-06-24T14:35:17;3.20;;;2.90;;
21820;SDS011;11073;48.586;12.066;2023-06-24T14:37:46;3.75;;;3.20;;
21820;SDS011;11073;48.586;12.066;2023-06-24T14:40:15;5.70;;;3.70;;
21820;SDS011;11073;48.586;12.066;2023-06-24T14:42:46;3.80;;;3.00;;
21820;SDS011;11073;48.586;12.066;2023-06-24T14:45:15;3.42;;;3.10;;
21820;SDS011;11073;48.586;12.066;2023-06-24T14:47:44;4.78;;;3.20;;
21820;SDS011;11073;48.586;12.066;2023-06-24T14:50:13;3.42;;;3.13;;
21820;SDS011;11073;48.586;12.066;2023-06-24T14:52:51;3.38;;;3.00;;
21820;SDS011;11073;48.586;12.066;2023-06-24T14:55:22;3.20;;;2.88;;
21820;SDS011;11073;48.586;12.066;2023-06-24T14:57:58;3.40;;;3.08;;
21820;SDS011;11073;48.586;12.066;2023-06-24T15:00:28;4.68;;;3.08;;